createdAt,value
2023-03-11T00:01:05.819Z,9.10
2023-03-11T00:03:32.750Z,9.05
2023-03-11T00:06:01.087Z,9.00
2023-03-11T00:08:28.452Z,8.95
2023-03-11T00:10:58.733Z,8.91
2023-03-11T00:13:26.582Z,8.87
2023-03-11T00:15:57.343Z,8.87
2023-03-11T00:18:28.109Z,8.83
2023-03-11T00:20:56.338Z,8.85
2023-03-11T00:23:23.772Z,8.73
2023-03-11T00:25:50.990Z,8.76
2023-03-11T00:28:18.234Z,8.80
2023-03-11T00:30:47.877Z,8.81
2023-03-11T00:33:15.928Z,8.80
2023-03-11T00:35:43.622Z,8.83
2023-03-11T00:38:12.288Z,8.89
2023-03-11T00:40:39.625Z,8.91
2023-03-11T00:43:06.521Z,8.89
2023-03-11T00:45:36.360Z,8.85
2023-03-11T00:48:03.945Z,8.87
2023-03-11T00:50:32.918Z,8.88
2023-03-11T00:53:00.014Z,8.84
2023-03-11T00:55:28.512Z,8.73
2023-03-11T00:57:57.718Z,8.62
2023-03-11T01:00:28.443Z,8.50
2023-03-11T01:02:56.407Z,8.42
2023-03-11T01:05:25.918Z,8.34
2023-03-11T01:07:52.861Z,8.27
2023-03-11T01:10:20.441Z,8.21
2023-03-11T01:12:47.980Z,8.15
2023-03-11T01:15:17.758Z,8.07
2023-03-11T01:17:44.627Z,8.04
2023-03-11T01:20:12.510Z,8.02
2023-03-11T01:22:39.616Z,7.99
2023-03-11T01:25:07.279Z,7.90
2023-03-11T01:27:34.416Z,7.88
2023-03-11T01:30:02.481Z,7.86
2023-03-11T01:32:32.098Z,7.85
2023-03-11T01:34:59.368Z,7.84
2023-03-11T01:37:26.316Z,7.81
2023-03-11T01:39:53.533Z,7.76
2023-03-11T01:42:20.416Z,7.70
2023-03-11T01:44:47.978Z,7.62
2023-03-11T01:47:32.418Z,7.64
2023-03-11T01:50:00.330Z,7.69
2023-03-11T01:52:28.073Z,7.73
2023-03-11T01:54:58.139Z,7.71
2023-03-11T01:57:25.276Z,7.71
2023-03-11T01:59:55.975Z,7.67
2023-03-11T02:02:32.550Z,7.61
2023-03-11T02:05:02.201Z,7.51
2023-03-11T02:07:29.168Z,7.42
2023-03-11T02:09:56.709Z,7.37
2023-03-11T02:12:24.762Z,7.36
2023-03-11T02:14:53.996Z,7.30
2023-03-11T02:17:21.228Z,7.24
2023-03-11T02:20:12.321Z,7.19
2023-03-11T02:22:43.683Z,7.14
2023-03-11T02:25:29.749Z,7.06
2023-03-11T02:27:57.991Z,6.98
2023-03-11T02:30:27.581Z,6.95
2023-03-11T02:32:55.133Z,6.92
2023-03-11T02:35:22.691Z,6.82
2023-03-11T02:37:52.443Z,6.78
2023-03-11T02:40:23.572Z,6.72
2023-03-11T02:42:56.140Z,6.66
2023-03-11T02:45:25.073Z,6.64
2023-03-11T02:47:56.089Z,6.56
2023-03-11T02:50:25.456Z,6.55
2023-03-11T02:52:52.849Z,6.49
2023-03-11T02:55:22.577Z,6.46
2023-03-11T02:57:49.517Z,6.43
2023-03-11T03:00:17.887Z,6.35
2023-03-11T03:02:53.467Z,6.27
2023-03-11T03:05:22.431Z,6.20
2023-03-11T03:07:50.735Z,6.15
2023-03-11T03:10:19.636Z,6.12
2023-03-11T03:12:46.833Z,6.09
2023-03-11T03:15:17.028Z,6.04
2023-03-11T03:17:44.881Z,6.00
2023-03-11T03:20:14.034Z,5.93
2023-03-11T03:22:45.025Z,5.88
2023-03-11T03:25:15.276Z,5.83
2023-03-11T03:27:42.354Z,5.79
2023-03-11T03:30:10.174Z,5.74
2023-03-11T03:32:37.798Z,5.73
2023-03-11T03:35:08.149Z,5.71
2023-03-11T03:37:55.169Z,5.67
2023-03-11T03:40:23.244Z,5.63
2023-03-11T03:42:53.677Z,5.58
2023-03-11T03:45:21.478Z,5.54
2023-03-11T03:47:51.768Z,5.44
2023-03-11T03:50:20.941Z,5.33
2023-03-11T03:52:49.683Z,5.25
2023-03-11T03:55:19.772Z,5.14
2023-03-11T03:57:47.062Z,5.11
2023-03-11T04:00:15.809Z,5.01
2023-03-11T04:02:44.846Z,4.93
2023-03-11T04:05:22.032Z,4.90
2023-03-11T04:07:48.871Z,4.85
2023-03-11T04:10:16.218Z,4.76
2023-03-11T04:12:43.527Z,4.74
2023-03-11T04:15:10.801Z,4.65
2023-03-11T04:17:38.964Z,4.62
2023-03-11T04:20:10.422Z,4.56
2023-03-11T04:22:37.670Z,4.54
2023-03-11T04:25:05.829Z,4.47
2023-03-11T04:27:33.381Z,4.46
2023-03-11T04:30:02.688Z,4.43
2023-03-11T04:32:31.233Z,4.37
2023-03-11T04:34:59.150Z,4.31
2023-03-11T04:37:29.378Z,4.29
2023-03-11T04:39:57.383Z,4.27
2023-03-11T04:42:24.964Z,4.31
2023-03-11T04:44:53.658Z,4.26
2023-03-11T04:47:23.418Z,4.17
2023-03-11T04:49:51.053Z,4.18
2023-03-11T04:52:17.935Z,4.14
2023-03-11T04:54:45.235Z,4.09
2023-03-11T04:57:12.172Z,4.12
2023-03-11T04:59:42.678Z,4.07
2023-03-11T05:02:12.808Z,4.06
2023-03-11T05:04:45.370Z,3.99
2023-03-11T05:07:14.913Z,3.97
2023-03-11T05:09:42.303Z,3.98
2023-03-11T05:12:12.268Z,3.95
2023-03-11T05:14:40.911Z,3.92
2023-03-11T05:17:10.117Z,3.86
2023-03-11T05:19:40.327Z,3.89
2023-03-11T05:22:13.369Z,3.98
2023-03-11T05:24:41.899Z,4.00
2023-03-11T05:27:09.020Z,3.96
2023-03-11T05:29:39.156Z,4.02
2023-03-11T05:32:09.071Z,4.01
2023-03-11T05:34:37.233Z,3.99
2023-03-11T05:37:04.924Z,4.05
2023-03-11T05:39:34.839Z,4.13
2023-03-11T05:42:01.740Z,4.20
2023-03-11T05:44:29.235Z,4.31
2023-03-11T05:46:56.756Z,4.43
2023-03-11T05:49:24.272Z,4.53
2023-03-11T05:51:55.707Z,4.60
2023-03-11T05:54:26.194Z,4.69
2023-03-11T05:56:55.918Z,4.78
2023-03-11T05:59:24.563Z,4.81
2023-03-11T06:01:57.292Z,4.88
2023-03-11T06:04:25.409Z,4.90
2023-03-11T06:06:54.942Z,4.93
2023-03-11T06:09:24.805Z,5.03
2023-03-11T06:11:53.458Z,5.09
2023-03-11T06:14:24.152Z,5.15
2023-03-11T06:16:51.855Z,5.44
2023-03-11T06:19:23.127Z,5.48
2023-03-11T06:21:51.991Z,5.53
2023-03-11T06:24:19.270Z,5.68
2023-03-11T06:26:50.830Z,5.55
2023-03-11T06:29:24.508Z,5.53
2023-03-11T06:31:54.888Z,5.63
2023-03-11T06:34:24.642Z,5.55
2023-03-11T06:36:52.561Z,5.74
2023-03-11T06:39:19.765Z,6.04
2023-03-11T06:41:49.269Z,6.09
2023-03-11T06:44:19.171Z,6.21
2023-03-11T06:46:47.019Z,6.41
2023-03-11T06:49:16.024Z,6.66
2023-03-11T06:51:43.497Z,7.23
2023-03-11T06:54:15.147Z,7.22
2023-03-11T06:56:42.695Z,6.81
2023-03-11T06:59:10.715Z,7.02
2023-03-11T07:01:37.784Z,7.40
2023-03-11T07:04:07.458Z,7.26
2023-03-11T07:06:38.767Z,7.07
2023-03-11T07:09:10.254Z,7.45
2023-03-11T07:11:41.334Z,7.73
2023-03-11T07:14:13.341Z,8.20
2023-03-11T07:16:45.238Z,8.16
2023-03-11T07:19:22.128Z,8.64
2023-03-11T07:21:49.130Z,8.53
2023-03-11T07:24:16.617Z,8.55
2023-03-11T07:26:44.560Z,9.00
2023-03-11T07:29:14.243Z,9.29
2023-03-11T07:31:41.721Z,10.20
2023-03-11T07:34:12.135Z,10.52
2023-03-11T07:36:42.367Z,10.63
2023-03-11T07:39:12.925Z,11.13
2023-03-11T07:41:39.806Z,10.64
2023-03-11T07:44:10.010Z,11.34
2023-03-11T07:46:37.190Z,11.90
2023-03-11T07:49:04.754Z,13.38
2023-03-11T07:51:33.111Z,13.76
2023-03-11T07:54:01.119Z,14.03
2023-03-11T07:56:29.596Z,13.06
2023-03-11T07:58:58.511Z,13.35
2023-03-11T08:01:26.119Z,13.44
2023-03-11T08:03:58.766Z,13.53
2023-03-11T08:06:31.288Z,13.09
2023-03-11T08:08:59.769Z,13.14
2023-03-11T08:11:26.716Z,12.84
2023-03-11T08:13:54.127Z,13.32
2023-03-11T08:16:22.070Z,14.28
2023-03-11T08:18:50.325Z,13.39
2023-03-11T08:21:18.934Z,13.36
2023-03-11T08:23:48.849Z,13.13
2023-03-11T08:26:20.103Z,12.58
2023-03-11T08:28:47.625Z,12.60
2023-03-11T08:31:15.920Z,11.84
2023-03-11T08:33:43.816Z,10.51
2023-03-11T08:36:11.067Z,10.25
2023-03-11T08:38:38.492Z,10.94
2023-03-11T08:41:05.431Z,10.00
2023-03-11T08:43:32.766Z,9.68
2023-03-11T08:46:07.089Z,9.56
2023-03-11T08:48:35.260Z,8.95
2023-03-11T08:51:03.138Z,8.85
2023-03-11T08:53:32.746Z,9.16
2023-03-11T08:55:59.615Z,8.65
2023-03-11T08:58:26.772Z,8.36
2023-03-11T09:00:56.144Z,8.53
2023-03-11T09:03:23.329Z,7.74
2023-03-11T09:06:02.574Z,7.61
2023-03-11T09:08:29.895Z,7.81
2023-03-11T09:10:59.430Z,8.12
2023-03-11T09:13:26.821Z,7.99
2023-03-11T09:15:56.320Z,8.27
2023-03-11T09:18:23.831Z,7.84
2023-03-11T09:20:50.914Z,7.79
2023-03-11T09:23:18.985Z,7.39
2023-03-11T09:25:45.957Z,7.90
2023-03-11T09:28:13.135Z,7.61
2023-03-11T09:30:39.992Z,8.07
2023-03-11T09:33:07.285Z,7.78
2023-03-11T09:35:34.453Z,8.18
2023-03-11T09:38:01.733Z,8.24
2023-03-11T09:40:39.510Z,8.08
2023-03-11T09:43:10.942Z,8.12
2023-03-11T09:45:41.918Z,8.33
2023-03-11T09:48:12.212Z,8.11
2023-03-11T09:50:58.092Z,8.45
2023-03-11T09:53:25.330Z,8.49
2023-03-11T09:55:53.458Z,8.46
2023-03-11T09:58:20.738Z,8.00
2023-03-11T10:00:48.293Z,7.86
2023-03-11T10:03:25.239Z,7.92
2023-03-11T10:05:54.854Z,8.17
2023-03-11T10:08:25.007Z,8.30
2023-03-11T10:10:59.088Z,7.82
2023-03-11T10:13:34.840Z,7.79
2023-03-11T10:16:14.656Z,7.99
2023-03-11T10:18:45.228Z,8.03
2023-03-11T10:21:20.664Z,8.08
2023-03-11T10:23:48.033Z,8.41
2023-03-11T10:26:29.850Z,7.85
2023-03-11T10:29:02.699Z,8.04
2023-03-11T10:31:29.588Z,7.85
2023-03-11T10:34:01.345Z,7.83
2023-03-11T10:36:35.373Z,8.13
2023-03-11T10:39:03.908Z,8.14
2023-03-11T10:41:49.688Z,8.10
2023-03-11T10:44:20.144Z,8.37
2023-03-11T10:46:47.604Z,8.44
2023-03-11T10:49:15.767Z,8.75
2023-03-11T10:51:45.640Z,8.48
2023-03-11T10:54:27.482Z,8.42
2023-03-11T10:56:56.261Z,7.95
2023-03-11T10:59:34.916Z,7.60
2023-03-11T11:02:22.913Z,7.09
2023-03-11T11:05:02.699Z,7.43
2023-03-11T11:07:31.721Z,7.68
2023-03-11T11:10:25.252Z,7.82
2023-03-11T11:12:52.215Z,8.51
2023-03-11T11:15:30.695Z,8.66
2023-03-11T11:17:59.450Z,7.79
2023-03-11T11:20:27.619Z,7.84
2023-03-11T11:22:58.794Z,8.37
2023-03-11T11:25:31.269Z,7.81
2023-03-11T11:28:02.764Z,7.51
2023-03-11T11:30:30.037Z,7.74
2023-03-11T11:32:57.190Z,7.28
2023-03-11T11:35:25.107Z,7.23
2023-03-11T11:38:00.308Z,7.03
2023-03-11T11:40:27.568Z,7.02
2023-03-11T11:43:00.663Z,7.07
2023-03-11T11:45:33.807Z,7.22
2023-03-11T11:48:04.741Z,7.86
2023-03-11T11:50:36.614Z,8.14
2023-03-11T11:53:15.941Z,8.18
2023-03-11T11:55:47.183Z,8.24
2023-03-11T11:58:14.136Z,7.50
2023-03-11T12:00:53.521Z,7.15
2023-03-11T12:03:20.420Z,7.12
2023-03-11T12:05:58.963Z,7.11
2023-03-11T12:08:25.903Z,7.01
2023-03-11T12:11:07.270Z,6.98
2023-03-11T12:13:46.442Z,7.02
2023-03-11T12:16:16.616Z,7.06
2023-03-11T12:18:53.404Z,7.31
2023-03-11T12:21:39.794Z,7.17
2023-03-11T12:24:09.897Z,6.92
2023-03-11T12:26:41.979Z,6.79
2023-03-11T12:29:16.045Z,6.86
2023-03-11T12:31:46.975Z,6.95
2023-03-11T12:34:17.690Z,6.83
2023-03-11T12:36:45.856Z,6.77
2023-03-11T12:39:26.451Z,6.62
2023-03-11T12:42:26.220Z,6.67
2023-03-11T12:44:54.008Z,6.53
2023-03-11T12:47:22.876Z,6.39
2023-03-11T12:49:51.988Z,6.45
2023-03-11T12:52:22.178Z,6.38
2023-03-11T12:55:10.358Z,6.42
2023-03-11T12:57:48.395Z,6.44
2023-03-11T13:00:54.079Z,6.28
2023-03-11T13:03:33.527Z,6.22
2023-03-11T13:06:10.984Z,6.16
2023-03-11T13:08:50.357Z,6.20
2023-03-11T13:11:26.406Z,6.23
2023-03-11T13:13:55.057Z,6.27
2023-03-11T13:16:21.992Z,6.27
2023-03-11T13:18:52.317Z,6.20
2023-03-11T13:21:39.704Z,6.17
2023-03-11T13:24:22.075Z,6.11
2023-03-11T13:26:54.591Z,6.08
2023-03-11T13:29:28.000Z,6.16
2023-03-11T13:32:13.877Z,6.27
2023-03-11T13:34:44.428Z,6.37
2023-03-11T13:37:30.172Z,6.38
2023-03-11T13:39:57.361Z,6.22
2023-03-11T13:42:28.276Z,6.05
2023-03-11T13:44:56.615Z,5.88
2023-03-11T13:47:27.042Z,5.83
2023-03-11T13:50:03.587Z,5.84
2023-03-11T13:52:34.972Z,5.70
2023-03-11T13:55:02.419Z,5.49
2023-03-11T13:57:31.945Z,5.46
2023-03-11T14:00:15.866Z,5.53
2023-03-11T14:03:22.324Z,5.66
2023-03-11T14:05:50.997Z,5.86
2023-03-11T14:08:21.207Z,5.93
2023-03-11T14:10:52.949Z,5.85
2023-03-11T14:13:20.320Z,5.89
2023-03-11T14:15:53.819Z,5.93
2023-03-11T14:18:26.838Z,5.93
2023-03-11T14:20:54.183Z,5.89
2023-03-11T14:23:21.721Z,5.79
2023-03-11T14:25:58.206Z,5.80
2023-03-11T14:28:26.725Z,5.83
2023-03-11T14:30:58.368Z,5.99
2023-03-11T14:33:26.115Z,5.92
2023-03-11T14:35:53.720Z,5.94
2023-03-11T14:38:21.806Z,5.88
2023-03-11T14:40:55.601Z,5.92
2023-03-11T14:43:22.841Z,5.91
2023-03-11T14:45:52.944Z,5.87
2023-03-11T14:48:35.986Z,5.79
2023-03-11T14:51:05.275Z,5.65
2023-03-11T14:53:42.921Z,5.59
2023-03-11T14:56:29.076Z,5.45
2023-03-11T14:59:07.012Z,5.33
2023-03-11T15:01:42.096Z,5.18
2023-03-11T15:04:11.486Z,5.14
2023-03-11T15:06:41.248Z,5.09
2023-03-11T15:09:10.819Z,5.16
2023-03-11T15:11:45.766Z,5.17
2023-03-11T15:14:32.967Z,5.25
2023-03-11T15:17:38.373Z,5.27
2023-03-11T15:20:23.172Z,5.15
2023-03-11T15:22:58.234Z,5.13
2023-03-11T15:25:25.582Z,5.18
2023-03-11T15:27:53.206Z,5.19
2023-03-11T15:30:20.897Z,5.10
2023-03-11T15:32:48.943Z,5.01
2023-03-11T15:35:18.271Z,4.96
2023-03-11T15:37:47.950Z,4.96
2023-03-11T15:40:26.160Z,4.90
2023-03-11T15:43:13.145Z,4.84
2023-03-11T15:45:41.079Z,4.83
2023-03-11T15:48:12.702Z,4.85
2023-03-11T15:50:53.947Z,4.82
2023-03-11T15:53:23.223Z,4.79
2023-03-11T15:55:52.658Z,4.77
2023-03-11T15:58:20.852Z,4.81
2023-03-11T16:00:49.708Z,4.80
2023-03-11T16:03:17.350Z,4.74
2023-03-11T16:05:47.060Z,4.62
2023-03-11T16:08:16.169Z,4.46
2023-03-11T16:10:43.651Z,4.39
2023-03-11T16:13:12.373Z,4.30
2023-03-11T16:15:40.112Z,4.26
2023-03-11T16:18:10.219Z,4.23
2023-03-11T16:20:40.632Z,4.22
2023-03-11T16:23:11.532Z,4.26
2023-03-11T16:25:40.228Z,4.25
2023-03-11T16:28:08.963Z,4.27
2023-03-11T16:30:36.502Z,4.28
2023-03-11T16:33:05.120Z,4.27
2023-03-11T16:35:33.145Z,4.26
2023-03-11T16:38:03.949Z,4.26
2023-03-11T16:40:32.859Z,4.22
2023-03-11T16:43:01.594Z,4.16
2023-03-11T16:45:33.628Z,4.13
2023-03-11T16:48:04.032Z,3.99
2023-03-11T16:50:32.894Z,3.87
2023-03-11T16:53:00.816Z,3.83
2023-03-11T16:55:31.052Z,3.69
2023-03-11T16:57:58.582Z,3.62
2023-03-11T17:00:26.532Z,3.57
2023-03-11T17:02:54.196Z,3.60
2023-03-11T17:05:21.811Z,3.56
2023-03-11T17:07:52.639Z,3.53
2023-03-11T17:10:20.026Z,3.51
2023-03-11T17:12:47.709Z,3.52
2023-03-11T17:15:16.176Z,3.51
2023-03-11T17:17:43.739Z,3.47
2023-03-11T17:20:11.806Z,3.49
2023-03-11T17:22:41.009Z,3.47
2023-03-11T17:25:09.485Z,3.43
2023-03-11T17:27:37.618Z,3.41
2023-03-11T17:30:06.262Z,3.38
2023-03-11T17:32:34.601Z,3.32
2023-03-11T17:35:02.272Z,3.28
2023-03-11T17:37:29.807Z,3.23
2023-03-11T17:39:57.325Z,3.19
2023-03-11T17:42:25.448Z,3.18
2023-03-11T17:44:59.928Z,3.13
2023-03-11T17:47:30.385Z,3.09
2023-03-11T17:50:00.898Z,3.05
2023-03-11T17:52:28.384Z,2.97
2023-03-11T17:54:59.182Z,2.96
2023-03-11T17:57:27.326Z,2.94
2023-03-11T17:59:54.934Z,2.97
2023-03-11T18:02:23.997Z,2.98
2023-03-11T18:04:54.211Z,2.98
2023-03-11T18:07:23.826Z,3.00
2023-03-11T18:09:54.214Z,2.98
2023-03-11T18:12:22.038Z,3.01
2023-03-11T18:14:49.785Z,2.97
2023-03-11T18:17:18.565Z,3.00
2023-03-11T18:19:45.900Z,3.09
2023-03-11T18:22:14.073Z,3.12
2023-03-11T18:24:42.037Z,3.17
2023-03-11T18:27:09.639Z,3.19
2023-03-11T18:29:38.641Z,3.17
2023-03-11T18:32:06.443Z,3.23
2023-03-11T18:34:34.047Z,3.21
2023-03-11T18:37:02.065Z,3.25
2023-03-11T18:39:29.839Z,3.25
2023-03-11T18:41:57.970Z,3.26
2023-03-11T18:44:27.982Z,3.26
2023-03-11T18:46:56.080Z,3.23
2023-03-11T18:49:23.841Z,3.26
2023-03-11T18:51:51.836Z,3.23
2023-03-11T18:54:19.224Z,3.22
2023-03-11T18:56:47.149Z,3.20
2023-03-11T18:59:14.988Z,3.16
2023-03-11T19:01:43.512Z,3.13
2023-03-11T19:04:11.610Z,3.08
2023-03-11T19:06:39.433Z,3.03
2023-03-11T19:09:11.495Z,3.02
2023-03-11T19:11:39.907Z,3.00
2023-03-11T19:14:07.792Z,2.95
2023-03-11T19:16:36.085Z,2.90
2023-03-11T19:19:04.254Z,2.82
2023-03-11T19:21:32.236Z,2.72
2023-03-11T19:24:00.810Z,2.74
2023-03-11T19:26:43.879Z,2.69
2023-03-11T19:29:12.828Z,2.62
2023-03-11T19:31:40.624Z,2.58
2023-03-11T19:34:08.256Z,2.55
2023-03-11T19:36:39.375Z,2.49
2023-03-11T19:39:07.350Z,2.50
2023-03-11T19:41:35.812Z,2.50
2023-03-11T19:44:04.616Z,2.46
2023-03-11T19:46:35.146Z,2.46
2023-03-11T19:49:03.194Z,2.48
2023-03-11T19:51:46.295Z,2.51
2023-03-11T19:54:16.756Z,2.57
2023-03-11T19:56:48.203Z,2.58
2023-03-11T19:59:16.220Z,2.59
2023-03-11T20:01:46.890Z,2.59
2023-03-11T20:04:17.576Z,2.55
2023-03-11T20:06:45.910Z,2.59
2023-03-11T20:09:16.369Z,2.58
2023-03-11T20:11:46.197Z,2.56
2023-03-11T20:14:14.417Z,2.51
2023-03-11T20:16:42.509Z,2.49
2023-03-11T20:19:10.364Z,2.50
2023-03-11T20:21:44.673Z,2.42
2023-03-11T20:24:13.299Z,2.37
2023-03-11T20:26:41.639Z,2.37
2023-03-11T20:29:09.837Z,2.38
2023-03-11T20:31:39.820Z,2.36
2023-03-11T20:34:10.210Z,2.30
2023-03-11T20:36:38.224Z,2.26
2023-03-11T20:39:10.450Z,2.21
2023-03-11T20:41:39.992Z,2.17
2023-03-11T20:44:09.133Z,2.17
2023-03-11T20:46:37.396Z,2.15
2023-03-11T20:49:07.603Z,2.19
2023-03-11T20:51:35.629Z,2.20
2023-03-11T20:54:06.492Z,2.22
2023-03-11T20:56:37.337Z,2.24
2023-03-11T20:59:07.444Z,2.29
2023-03-11T21:01:36.296Z,2.26
2023-03-11T21:04:04.351Z,2.26
2023-03-11T21:06:33.798Z,2.28
2023-03-11T21:09:02.462Z,2.32
2023-03-11T21:11:31.799Z,2.28
2023-03-11T21:14:01.619Z,2.27
2023-03-11T21:16:29.158Z,2.24
2023-03-11T21:18:56.676Z,2.24
2023-03-11T21:21:24.756Z,2.21
2023-03-11T21:23:55.061Z,2.17
2023-03-11T21:26:23.076Z,2.13
2023-03-11T21:28:50.148Z,2.09
2023-03-11T21:31:19.051Z,2.07
2023-03-11T21:33:47.242Z,2.07
2023-03-11T21:36:15.552Z,2.08
2023-03-11T21:38:43.235Z,2.09
2023-03-11T21:41:15.006Z,2.08
2023-03-11T21:43:42.412Z,2.10
2023-03-11T21:46:20.080Z,2.06
2023-03-11T21:48:47.820Z,2.08
2023-03-11T21:51:15.628Z,2.10
2023-03-11T21:53:42.886Z,2.08
2023-03-11T21:56:10.344Z,2.05
2023-03-11T21:58:37.367Z,2.06
2023-03-11T22:01:04.900Z,2.07
2023-03-11T22:03:35.673Z,2.04
2023-03-11T22:06:05.187Z,2.05
2023-03-11T22:08:32.356Z,2.02
2023-03-11T22:10:59.811Z,2.00
2023-03-11T22:13:26.944Z,1.97
2023-03-11T22:15:54.217Z,2.03
2023-03-11T22:18:21.569Z,2.05
2023-03-11T22:20:49.259Z,2.08
2023-03-11T22:23:16.117Z,2.07
2023-03-11T22:25:43.336Z,2.12
2023-03-11T22:28:12.949Z,2.12
2023-03-11T22:30:40.760Z,2.10
2023-03-11T22:33:07.987Z,2.05
2023-03-11T22:35:35.306Z,1.97
2023-03-11T22:38:02.336Z,1.94
2023-03-11T22:40:29.492Z,1.86
2023-03-11T22:42:58.584Z,1.83
2023-03-11T22:45:29.898Z,1.79
2023-03-11T22:47:56.860Z,1.76
2023-03-11T22:50:24.723Z,1.72
2023-03-11T22:52:51.641Z,1.68
2023-03-11T22:55:19.187Z,1.66
2023-03-11T22:57:46.236Z,1.62
2023-03-11T23:00:17.281Z,1.59
2023-03-11T23:02:44.914Z,1.52
2023-03-11T23:05:12.922Z,1.50
2023-03-11T23:07:40.054Z,1.49
2023-03-11T23:10:08.360Z,1.45
2023-03-11T23:12:36.192Z,1.39
2023-03-11T23:15:08.364Z,1.32
2023-03-11T23:17:35.624Z,1.22
2023-03-11T23:20:03.845Z,1.15
2023-03-11T23:22:30.756Z,1.04
2023-03-11T23:25:01.286Z,0.98
2023-03-11T23:27:29.090Z,0.85
2023-03-11T23:29:56.419Z,0.71
2023-03-11T23:32:23.682Z,0.62
2023-03-11T23:34:50.937Z,0.50
2023-03-11T23:37:17.889Z,0.51
2023-03-11T23:39:45.499Z,0.54
2023-03-11T23:42:24.894Z,0.45
2023-03-11T23:44:53.836Z,0.41
2023-03-11T23:47:20.943Z,0.39
2023-03-11T23:49:48.231Z,0.37
2023-03-11T23:52:15.343Z,0.40
2023-03-11T23:54:42.553Z,0.39
2023-03-11T23:57:09.593Z,0.44
2023-03-11T23:59:36.769Z,0.45
